createdAt,value
2022-08-21T00:02:04.850Z,17.50
2022-08-21T00:04:32.367Z,17.40
2022-08-21T00:06:59.854Z,17.40
2022-08-21T00:09:27.346Z,17.40
2022-08-21T00:11:54.749Z,17.40
2022-08-21T00:14:22.311Z,17.40
2022-08-21T00:16:50.773Z,17.30
2022-08-21T00:19:18.274Z,17.40
2022-08-21T00:21:46.276Z,17.30
2022-08-21T00:24:13.995Z,17.30
2022-08-21T00:26:41.440Z,17.30
2022-08-21T00:29:08.847Z,17.50
2022-08-21T00:31:36.977Z,17.50
2022-08-21T00:34:04.448Z,17.40
2022-08-21T00:36:31.934Z,17.40
2022-08-21T00:38:59.306Z,17.40
2022-08-21T00:41:37.577Z,17.20
2022-08-21T00:44:09.622Z,17.20
2022-08-21T00:46:38.000Z,17.20
2022-08-21T00:49:07.201Z,17.10
2022-08-21T00:51:53.039Z,17.10
2022-08-21T00:54:25.562Z,17.10
2022-08-21T00:56:57.988Z,17.10
2022-08-21T00:59:28.608Z,17.10
2022-08-21T01:01:56.654Z,17.00
2022-08-21T01:04:24.681Z,16.90
2022-08-21T01:06:52.778Z,16.90
2022-08-21T01:09:20.909Z,16.90
2022-08-21T01:11:48.520Z,17.00
2022-08-21T01:14:16.536Z,17.00
2022-08-21T01:16:47.056Z,17.00
2022-08-21T01:19:15.962Z,16.90
2022-08-21T01:21:43.951Z,16.90
2022-08-21T01:24:12.335Z,16.90
2022-08-21T01:26:40.787Z,16.80
2022-08-21T01:29:43.882Z,16.80
2022-08-21T01:32:14.074Z,16.80
2022-08-21T01:34:44.590Z,16.90
2022-08-21T01:37:13.189Z,16.80
2022-08-21T01:39:41.442Z,16.80
2022-08-21T01:42:11.222Z,16.80
2022-08-21T01:44:38.671Z,16.70
2022-08-21T01:47:09.002Z,16.70
2022-08-21T01:49:38.367Z,16.80
2022-08-21T01:52:07.010Z,16.70
2022-08-21T01:54:38.579Z,16.70
2022-08-21T01:57:07.136Z,16.70
2022-08-21T01:59:34.937Z,16.70
2022-08-21T02:02:02.394Z,16.60
2022-08-21T02:04:29.941Z,16.60
2022-08-21T02:06:57.602Z,16.70
2022-08-21T02:09:25.028Z,16.70
2022-08-21T02:11:52.721Z,16.60
2022-08-21T02:14:28.697Z,16.60
2022-08-21T02:17:05.520Z,16.60
2022-08-21T02:19:39.540Z,16.50
2022-08-21T02:22:10.342Z,16.50
2022-08-21T02:25:00.130Z,16.50
2022-08-21T02:27:30.207Z,16.50
2022-08-21T02:30:01.670Z,16.50
2022-08-21T02:32:29.290Z,16.50
2022-08-21T02:34:56.744Z,16.50
2022-08-21T02:37:24.699Z,16.50
2022-08-21T02:39:52.213Z,16.50
2022-08-21T02:42:19.666Z,16.50
2022-08-21T02:44:47.096Z,16.50
2022-08-21T02:47:15.653Z,16.50
2022-08-21T02:49:43.081Z,16.50
2022-08-21T02:52:10.649Z,16.50
2022-08-21T02:54:38.092Z,16.50
2022-08-21T02:57:05.619Z,16.40
2022-08-21T02:59:33.158Z,16.40
2022-08-21T03:02:00.669Z,16.40
2022-08-21T03:04:28.095Z,16.40
2022-08-21T03:06:55.558Z,16.40
2022-08-21T03:09:22.955Z,16.40
2022-08-21T03:11:50.711Z,16.30
2022-08-21T03:14:18.936Z,16.30
2022-08-21T03:16:46.997Z,16.30
2022-08-21T03:19:14.530Z,16.30
2022-08-21T03:21:42.220Z,16.30
2022-08-21T03:24:10.248Z,16.20
2022-08-21T03:26:37.631Z,16.20
2022-08-21T03:29:08.491Z,16.10
2022-08-21T03:31:35.977Z,16.10
2022-08-21T03:34:03.573Z,16.10
2022-08-21T03:36:31.031Z,16.20
2022-08-21T03:38:58.485Z,16.10
2022-08-21T03:41:25.864Z,16.10
2022-08-21T03:43:53.297Z,16.10
2022-08-21T03:46:20.951Z,16.10
2022-08-21T03:48:48.979Z,16.10
2022-08-21T03:51:16.634Z,16.10
2022-08-21T03:53:44.110Z,16.10
2022-08-21T03:56:12.307Z,16.10
2022-08-21T03:58:39.795Z,16.00
2022-08-21T04:01:07.412Z,16.00
2022-08-21T04:03:36.915Z,16.10
2022-08-21T04:06:05.319Z,16.10
2022-08-21T04:08:32.809Z,16.10
2022-08-21T04:11:00.388Z,16.10
2022-08-21T04:13:29.221Z,16.10
2022-08-21T04:15:57.797Z,16.10
2022-08-21T04:18:25.728Z,16.10
2022-08-21T04:20:55.077Z,16.10
2022-08-21T04:23:24.936Z,16.10
2022-08-21T04:25:54.397Z,16.10
2022-08-21T04:28:23.367Z,16.10
2022-08-21T04:30:53.145Z,16.10
2022-08-21T04:33:22.337Z,16.10
2022-08-21T04:35:50.665Z,16.10
2022-08-21T04:38:18.314Z,16.10
2022-08-21T04:40:46.132Z,16.00
2022-08-21T04:43:13.646Z,16.00
2022-08-21T04:45:48.326Z,16.00
2022-08-21T04:48:18.921Z,15.90
2022-08-21T04:51:07.945Z,15.90
2022-08-21T04:53:57.622Z,15.90
2022-08-21T04:56:32.716Z,15.90
2022-08-21T04:59:05.308Z,15.90
2022-08-21T05:01:36.705Z,15.80
2022-08-21T05:04:06.841Z,15.90
2022-08-21T05:06:38.006Z,15.80
2022-08-21T05:09:06.917Z,15.80
2022-08-21T05:11:34.437Z,15.80
2022-08-21T05:14:02.104Z,15.80
2022-08-21T05:16:36.675Z,15.80
2022-08-21T05:19:09.406Z,15.80
2022-08-21T05:21:39.931Z,15.80
2022-08-21T05:24:08.340Z,15.80
2022-08-21T05:26:45.246Z,15.80
2022-08-21T05:29:15.257Z,15.90
2022-08-21T05:31:44.820Z,15.90
2022-08-21T05:34:13.412Z,15.90
2022-08-21T05:36:43.848Z,15.90
2022-08-21T05:39:11.530Z,15.90
2022-08-21T05:41:39.469Z,15.90
2022-08-21T05:44:10.633Z,15.90
2022-08-21T05:46:39.301Z,15.90
2022-08-21T05:49:06.734Z,15.90
2022-08-21T05:51:34.112Z,16.00
2022-08-21T05:54:01.498Z,16.00
2022-08-21T05:56:28.924Z,16.00
2022-08-21T05:58:56.771Z,16.00
2022-08-21T06:01:24.316Z,16.10
2022-08-21T06:03:52.289Z,16.10
2022-08-21T06:06:21.237Z,16.10
2022-08-21T06:08:48.575Z,16.10
2022-08-21T06:11:15.979Z,16.10
2022-08-21T06:13:43.347Z,16.10
2022-08-21T06:16:15.876Z,16.20
2022-08-21T06:18:45.077Z,16.30
2022-08-21T06:21:14.431Z,16.30
2022-08-21T06:23:42.991Z,16.40
2022-08-21T06:26:12.178Z,16.40
2022-08-21T06:28:40.692Z,16.40
2022-08-21T06:31:16.192Z,16.50
2022-08-21T06:33:43.749Z,16.50
2022-08-21T06:36:11.199Z,16.60
2022-08-21T06:38:39.394Z,16.60
2022-08-21T06:41:07.433Z,16.60
2022-08-21T06:43:39.332Z,16.70
2022-08-21T06:46:08.797Z,16.80
2022-08-21T06:48:36.528Z,16.80
2022-08-21T06:51:04.203Z,16.80
2022-08-21T06:53:31.619Z,16.90
2022-08-21T06:55:59.034Z,16.90
2022-08-21T06:58:26.472Z,16.90
2022-08-21T07:00:57.509Z,16.90
2022-08-21T07:03:37.873Z,16.90
2022-08-21T07:06:07.278Z,16.90
2022-08-21T07:08:35.075Z,16.90
2022-08-21T07:11:07.961Z,17.00
2022-08-21T07:13:35.462Z,17.00
2022-08-21T07:16:04.261Z,17.00
2022-08-21T07:18:32.269Z,17.00
2022-08-21T07:21:03.078Z,17.00
2022-08-21T07:23:34.070Z,17.10
2022-08-21T07:26:01.786Z,17.10
2022-08-21T07:28:30.391Z,17.20
2022-08-21T07:30:59.373Z,17.20
2022-08-21T07:33:28.980Z,17.30
2022-08-21T07:35:57.123Z,17.30
2022-08-21T07:38:26.080Z,17.20
2022-08-21T07:40:57.562Z,17.20
2022-08-21T07:43:25.038Z,17.30
2022-08-21T07:45:54.316Z,17.30
2022-08-21T07:48:22.747Z,17.30
2022-08-21T07:50:50.884Z,17.20
2022-08-21T07:53:18.332Z,17.20
2022-08-21T07:55:45.799Z,17.30
2022-08-21T07:58:13.715Z,17.40
2022-08-21T08:00:41.878Z,17.40
2022-08-21T08:03:09.517Z,17.40
2022-08-21T08:05:38.663Z,17.40
2022-08-21T08:08:06.131Z,17.50
2022-08-21T08:10:33.842Z,17.60
2022-08-21T08:13:02.355Z,17.60
2022-08-21T08:15:32.392Z,17.60
2022-08-21T08:18:01.946Z,17.70
2022-08-21T08:20:30.299Z,17.80
2022-08-21T08:22:58.115Z,17.80
2022-08-21T08:25:36.302Z,17.90
2022-08-21T08:28:16.877Z,17.90
2022-08-21T08:30:48.732Z,17.90
2022-08-21T08:33:17.603Z,18.00
2022-08-21T08:35:48.744Z,18.00
2022-08-21T08:38:20.904Z,18.00
2022-08-21T08:41:08.191Z,18.10
2022-08-21T08:43:36.666Z,18.10
2022-08-21T08:46:11.885Z,18.20
2022-08-21T08:48:56.834Z,18.20
2022-08-21T08:51:40.880Z,18.20
2022-08-21T08:54:14.490Z,18.30
2022-08-21T08:56:42.789Z,18.30
2022-08-21T08:59:24.188Z,18.40
2022-08-21T09:01:52.754Z,18.40
2022-08-21T09:04:26.120Z,18.50
2022-08-21T09:07:05.454Z,18.60
2022-08-21T09:10:02.314Z,18.70
2022-08-21T09:12:48.547Z,18.80
2022-08-21T09:15:27.096Z,18.90
2022-08-21T09:18:12.598Z,19.00
2022-08-21T09:21:21.960Z,19.10
2022-08-21T09:24:03.252Z,19.20
2022-08-21T09:27:00.476Z,19.40
2022-08-21T09:29:32.453Z,19.40
2022-08-21T09:32:00.594Z,19.50
2022-08-21T09:34:30.765Z,19.60
2022-08-21T09:36:58.980Z,19.70
2022-08-21T09:39:40.324Z,19.80
2022-08-21T09:42:10.935Z,19.80
2022-08-21T09:44:44.133Z,19.80
2022-08-21T09:47:16.145Z,19.90
2022-08-21T09:49:44.247Z,19.90
2022-08-21T09:52:22.858Z,19.90
2022-08-21T09:54:55.340Z,19.90
2022-08-21T09:57:44.666Z,20.00
2022-08-21T10:00:30.722Z,20.00
2022-08-21T10:03:20.695Z,20.20
2022-08-21T10:05:52.088Z,20.30
2022-08-21T10:08:22.327Z,20.30
2022-08-21T10:11:02.439Z,20.40
2022-08-21T10:13:39.113Z,20.60
2022-08-21T10:16:21.492Z,20.80
2022-08-21T10:19:03.889Z,20.90
2022-08-21T10:21:43.241Z,20.90
2022-08-21T10:24:31.121Z,20.90
2022-08-21T10:27:42.584Z,20.90
2022-08-21T10:30:16.213Z,20.90
2022-08-21T10:33:13.884Z,20.90
2022-08-21T10:35:44.133Z,21.00
2022-08-21T10:38:46.368Z,21.10
2022-08-21T10:41:29.781Z,21.20
2022-08-21T10:44:19.364Z,21.30
2022-08-21T10:47:02.777Z,21.40
2022-08-21T10:49:39.379Z,21.30
2022-08-21T10:52:18.453Z,21.30
2022-08-21T10:55:01.362Z,21.20
2022-08-21T10:57:55.596Z,21.00
2022-08-21T11:00:27.869Z,20.90
2022-08-21T11:03:02.342Z,20.90
2022-08-21T11:05:40.096Z,20.80
2022-08-21T11:08:18.342Z,20.80
2022-08-21T11:10:59.562Z,20.80
2022-08-21T11:13:47.969Z,20.90
2022-08-21T11:16:40.803Z,21.00
2022-08-21T11:19:31.710Z,20.90
2022-08-21T11:22:25.163Z,20.70
2022-08-21T11:25:04.450Z,20.80
2022-08-21T11:27:47.875Z,20.80
2022-08-21T11:30:16.012Z,20.80
2022-08-21T11:33:02.248Z,20.80
2022-08-21T11:35:54.350Z,20.80
2022-08-21T11:38:41.009Z,20.70
2022-08-21T11:41:32.776Z,20.70
2022-08-21T11:44:09.189Z,20.70
2022-08-21T11:46:49.390Z,20.70
2022-08-21T11:49:35.841Z,20.70
2022-08-21T11:52:30.018Z,20.80
2022-08-21T11:55:03.933Z,21.00
2022-08-21T11:57:39.262Z,21.10
2022-08-21T12:00:19.862Z,21.20
2022-08-21T12:02:56.332Z,21.30
2022-08-21T12:05:39.320Z,21.30
2022-08-21T12:08:14.443Z,21.40
2022-08-21T12:11:03.501Z,21.40
2022-08-21T12:13:52.704Z,21.40
2022-08-21T12:16:36.320Z,21.60
2022-08-21T12:19:21.207Z,22.10
2022-08-21T12:21:51.485Z,22.40
2022-08-21T12:24:39.148Z,22.30
2022-08-21T12:27:22.189Z,22.30
2022-08-21T12:29:56.595Z,22.40
2022-08-21T12:32:28.162Z,22.40
2022-08-21T12:35:15.590Z,22.50
2022-08-21T12:38:03.275Z,22.50
2022-08-21T12:40:46.821Z,22.40
2022-08-21T12:43:30.188Z,22.60
2022-08-21T12:46:00.031Z,22.60
2022-08-21T12:48:42.096Z,22.80
2022-08-21T12:51:16.273Z,23.00
2022-08-21T12:53:58.656Z,23.40
2022-08-21T12:56:28.991Z,23.20
2022-08-21T12:59:12.018Z,22.90
2022-08-21T13:01:46.970Z,22.90
2022-08-21T13:04:34.925Z,23.20
2022-08-21T13:07:06.339Z,23.50
2022-08-21T13:09:33.955Z,23.40
2022-08-21T13:12:01.821Z,23.50
2022-08-21T13:14:59.793Z,23.60
2022-08-21T13:17:33.192Z,24.00
2022-08-21T13:20:04.380Z,24.00
2022-08-21T13:22:33.902Z,24.00
2022-08-21T13:25:07.111Z,23.90
2022-08-21T13:27:35.736Z,24.00
2022-08-21T13:30:19.767Z,24.20
2022-08-21T13:32:51.205Z,24.90
2022-08-21T13:35:22.601Z,25.00
2022-08-21T13:37:52.860Z,25.50
2022-08-21T13:40:28.932Z,25.90
2022-08-21T13:42:57.307Z,25.90
2022-08-21T13:45:32.373Z,25.40
2022-08-21T13:48:03.185Z,24.90
2022-08-21T13:50:37.393Z,24.90
2022-08-21T13:53:08.513Z,25.00
2022-08-21T13:55:40.825Z,25.30
2022-08-21T13:58:09.497Z,25.90
2022-08-21T14:00:47.246Z,26.30
2022-08-21T14:03:36.055Z,26.80
2022-08-21T14:06:12.024Z,26.90
2022-08-21T14:08:42.066Z,26.80
2022-08-21T14:11:13.585Z,26.60
2022-08-21T14:13:42.390Z,26.90
2022-08-21T14:16:19.046Z,27.00
2022-08-21T14:19:06.860Z,26.80
2022-08-21T14:21:44.804Z,26.60
2022-08-21T14:24:28.092Z,26.30
2022-08-21T14:27:07.751Z,26.40
2022-08-21T14:29:39.443Z,26.80
2022-08-21T14:32:21.751Z,27.00
2022-08-21T14:34:54.576Z,27.10
2022-08-21T14:37:23.598Z,27.00
2022-08-21T14:39:51.730Z,27.20
2022-08-21T14:42:19.800Z,27.50
2022-08-21T14:44:47.493Z,27.30
2022-08-21T14:47:14.913Z,27.00
2022-08-21T14:49:42.317Z,26.80
2022-08-21T14:52:10.032Z,26.80
2022-08-21T14:54:37.583Z,26.50
2022-08-21T14:57:09.606Z,26.40
2022-08-21T14:59:38.664Z,26.20
2022-08-21T15:02:07.899Z,25.50
2022-08-21T15:04:35.752Z,25.10
2022-08-21T15:07:03.844Z,24.60
2022-08-21T15:09:31.320Z,24.30
2022-08-21T15:12:01.263Z,23.90
2022-08-21T15:14:31.897Z,23.80
2022-08-21T15:16:59.989Z,23.60
2022-08-21T15:19:28.424Z,23.60
2022-08-21T15:21:56.017Z,23.50
2022-08-21T15:24:23.786Z,23.50
2022-08-21T15:26:52.243Z,23.30
2022-08-21T15:29:22.724Z,23.20
2022-08-21T15:31:52.335Z,23.20
2022-08-21T15:34:21.398Z,23.20
2022-08-21T15:36:52.775Z,23.30
2022-08-21T15:39:31.283Z,23.30
2022-08-21T15:42:00.323Z,23.20
2022-08-21T15:44:40.395Z,23.20
2022-08-21T15:47:13.216Z,23.20
2022-08-21T15:49:43.674Z,23.50
2022-08-21T15:52:11.270Z,23.60
2022-08-21T15:54:38.781Z,23.60
2022-08-21T15:57:06.906Z,23.60
2022-08-21T15:59:45.125Z,23.60
2022-08-21T16:02:24.129Z,23.50
2022-08-21T16:04:51.788Z,23.30
2022-08-21T16:07:19.494Z,23.20
2022-08-21T16:09:46.961Z,23.20
2022-08-21T16:12:21.864Z,23.20
2022-08-21T16:14:50.860Z,23.20
2022-08-21T16:17:18.565Z,23.10
2022-08-21T16:19:46.423Z,23.10
2022-08-21T16:22:15.033Z,23.10
2022-08-21T16:24:42.437Z,23.10
2022-08-21T16:27:10.457Z,23.20
2022-08-21T16:29:38.296Z,23.20
2022-08-21T16:32:09.062Z,23.20
2022-08-21T16:34:37.040Z,23.30
2022-08-21T16:37:04.548Z,23.30
2022-08-21T16:39:31.947Z,23.20
2022-08-21T16:41:59.392Z,23.30
2022-08-21T16:44:26.898Z,23.20
2022-08-21T16:46:58.528Z,23.20
2022-08-21T16:49:26.381Z,23.20
2022-08-21T16:51:54.024Z,23.20
2022-08-21T16:54:21.821Z,23.30
2022-08-21T16:56:49.251Z,23.30
2022-08-21T16:59:17.538Z,23.30
2022-08-21T17:01:45.814Z,23.20
2022-08-21T17:04:13.619Z,23.30
2022-08-21T17:06:41.132Z,23.30
2022-08-21T17:09:08.535Z,23.30
2022-08-21T17:11:40.781Z,23.30
2022-08-21T17:14:23.380Z,23.30
2022-08-21T17:16:54.256Z,23.30
2022-08-21T17:19:22.390Z,23.10
2022-08-21T17:21:49.939Z,22.90
2022-08-21T17:24:17.609Z,22.90
2022-08-21T17:26:46.190Z,22.90
2022-08-21T17:29:15.926Z,22.80
2022-08-21T17:31:44.583Z,22.80
2022-08-21T17:34:12.634Z,22.90
2022-08-21T17:36:40.222Z,22.80
2022-08-21T17:39:07.676Z,22.80
2022-08-21T17:41:35.123Z,22.70
2022-08-21T17:44:07.301Z,22.60
2022-08-21T17:46:34.946Z,22.60
2022-08-21T17:49:02.581Z,22.60
2022-08-21T17:51:30.129Z,22.70
2022-08-21T17:53:58.028Z,22.60
2022-08-21T17:56:31.270Z,22.60
2022-08-21T17:58:59.073Z,22.60
2022-08-21T18:01:29.215Z,22.60
2022-08-21T18:03:56.653Z,22.60
2022-08-21T18:06:24.111Z,22.70
2022-08-21T18:08:52.338Z,22.70
2022-08-21T18:11:24.304Z,22.70
2022-08-21T18:13:54.505Z,22.60
2022-08-21T18:16:22.699Z,22.60
2022-08-21T18:18:51.734Z,22.70
2022-08-21T18:21:19.529Z,22.60
2022-08-21T18:23:47.449Z,22.60
2022-08-21T18:26:21.029Z,22.60
2022-08-21T18:28:48.526Z,22.60
2022-08-21T18:31:16.077Z,22.50
2022-08-21T18:33:48.404Z,22.40
2022-08-21T18:36:27.118Z,22.30
2022-08-21T18:39:01.223Z,22.20
2022-08-21T18:41:36.298Z,22.10
2022-08-21T18:44:03.980Z,22.10
2022-08-21T18:46:31.695Z,22.00
2022-08-21T18:48:59.355Z,22.00
2022-08-21T18:51:26.852Z,22.00
2022-08-21T18:53:56.631Z,21.90
2022-08-21T18:56:24.198Z,21.80
2022-08-21T18:58:57.779Z,21.80
2022-08-21T19:01:25.995Z,21.70
2022-08-21T19:03:53.455Z,21.60
2022-08-21T19:06:21.188Z,21.60
2022-08-21T19:08:48.778Z,21.50
2022-08-21T19:11:23.393Z,21.40
2022-08-21T19:13:53.548Z,21.40
2022-08-21T19:16:22.237Z,21.40
2022-08-21T19:18:49.998Z,21.40
2022-08-21T19:21:17.597Z,21.30
2022-08-21T19:23:52.562Z,21.30
2022-08-21T19:26:22.638Z,21.20
2022-08-21T19:28:53.082Z,21.20
2022-08-21T19:31:24.032Z,21.10
2022-08-21T19:34:01.587Z,21.10
2022-08-21T19:36:30.162Z,21.10
2022-08-21T19:38:58.033Z,21.10
2022-08-21T19:41:32.054Z,21.00
2022-08-21T19:44:03.662Z,21.00
2022-08-21T19:46:35.075Z,21.00
2022-08-21T19:49:04.797Z,20.90
2022-08-21T19:51:34.265Z,20.90
2022-08-21T19:54:02.304Z,20.90
2022-08-21T19:56:31.902Z,20.80
2022-08-21T19:59:04.945Z,20.80
2022-08-21T20:01:36.773Z,20.80
2022-08-21T20:04:10.736Z,20.80
2022-08-21T20:06:45.795Z,20.80
2022-08-21T20:09:16.974Z,20.70
2022-08-21T20:11:50.239Z,20.70
2022-08-21T20:14:21.609Z,20.70
2022-08-21T20:16:52.670Z,20.70
2022-08-21T20:19:21.937Z,20.60
2022-08-21T20:21:49.465Z,20.60
2022-08-21T20:24:17.400Z,20.60
2022-08-21T20:26:49.191Z,20.50
2022-08-21T20:29:24.462Z,20.40
2022-08-21T20:31:56.804Z,20.40
2022-08-21T20:34:25.478Z,20.40
2022-08-21T20:36:53.504Z,20.40
2022-08-21T20:39:23.992Z,20.30
2022-08-21T20:41:55.724Z,20.30
2022-08-21T20:44:28.270Z,20.20
2022-08-21T20:46:57.819Z,20.20
2022-08-21T20:49:30.940Z,20.10
2022-08-21T20:51:59.928Z,20.10
2022-08-21T20:54:56.237Z,20.10
2022-08-21T20:57:42.199Z,20.00
2022-08-21T21:00:14.862Z,19.90
2022-08-21T21:03:07.417Z,19.90
2022-08-21T21:05:54.035Z,19.90
2022-08-21T21:08:46.872Z,19.90
2022-08-21T21:11:33.721Z,19.80
2022-08-21T21:14:08.060Z,19.80
2022-08-21T21:16:55.355Z,19.70
2022-08-21T21:19:52.731Z,19.70
2022-08-21T21:22:20.118Z,19.80
2022-08-21T21:25:11.217Z,19.80
2022-08-21T21:27:48.884Z,19.80
2022-08-21T21:30:27.315Z,19.80
2022-08-21T21:32:54.704Z,19.80
2022-08-21T21:35:32.427Z,19.70
2022-08-21T21:38:32.552Z,19.60
2022-08-21T21:41:24.961Z,19.60
2022-08-21T21:44:13.108Z,19.60
2022-08-21T21:46:48.429Z,19.50
2022-08-21T21:49:50.175Z,19.50
2022-08-21T21:52:23.510Z,19.40
2022-08-21T21:54:58.163Z,19.40
2022-08-21T21:57:39.839Z,19.30
2022-08-21T22:00:21.903Z,19.30
2022-08-21T22:03:07.954Z,19.30
2022-08-21T22:06:01.203Z,19.30
2022-08-21T22:08:51.010Z,19.20
2022-08-21T22:11:34.848Z,19.20
2022-08-21T22:14:09.876Z,19.20
2022-08-21T22:16:38.078Z,19.20
2022-08-21T22:19:29.295Z,19.10
2022-08-21T22:22:06.888Z,19.10
2022-08-21T22:24:43.947Z,19.10
2022-08-21T22:27:22.082Z,19.00
2022-08-21T22:29:52.883Z,19.00
2022-08-21T22:32:27.920Z,19.00
2022-08-21T22:35:12.596Z,19.00
2022-08-21T22:37:49.639Z,19.00
2022-08-21T22:43:25.148Z,19.00
2022-08-21T22:46:04.249Z,19.00
2022-08-21T22:48:38.191Z,19.00
2022-08-21T22:51:30.021Z,19.00
2022-08-21T22:54:00.456Z,19.00
2022-08-21T22:56:38.588Z,19.00
2022-08-21T22:59:10.457Z,18.90
2022-08-21T23:01:43.877Z,18.80
2022-08-21T23:04:19.348Z,18.80
2022-08-21T23:06:52.055Z,18.80
2022-08-21T23:09:37.924Z,18.70
2022-08-21T23:12:34.913Z,18.70
2022-08-21T23:15:07.823Z,18.70
2022-08-21T23:18:18.612Z,18.60
2022-08-21T23:21:15.923Z,18.60
2022-08-21T23:23:57.027Z,18.50
2022-08-21T23:26:35.716Z,18.50
2022-08-21T23:29:32.234Z,18.40
2022-08-21T23:32:17.695Z,18.40
2022-08-21T23:34:50.959Z,18.40
2022-08-21T23:37:56.305Z,18.40
2022-08-21T23:40:51.120Z,18.40
2022-08-21T23:43:41.667Z,18.50
2022-08-21T23:46:46.601Z,18.50
2022-08-21T23:49:19.527Z,18.40
2022-08-21T23:51:56.019Z,18.30
2022-08-21T23:54:51.207Z,18.30
2022-08-21T23:57:44.473Z,18.20
